sensor_id;sensor_type;location;lat;lon;timestamp;temperature;humidity
4107;DHT22;21906;50.812;7.132;2024-01-07T00:00:12;5.60;77.30
4107;DHT22;21906;50.812;7.132;2024-01-07T00:02:38;5.60;77.60
4107;DHT22;21906;50.812;7.132;2024-01-07T00:05:04;5.70;77.30
4107;DHT22;21906;50.812;7.132;2024-01-07T00:07:30;5.70;77.30
4107;DHT22;21906;50.812;7.132;2024-01-07T00:09:55;5.80;77.20
4107;DHT22;21906;50.812;7.132;2024-01-07T00:12:21;5.80;76.80
4107;DHT22;21906;50.812;7.132;2024-01-07T00:14:47;5.70;76.80
4107;DHT22;21906;50.812;7.132;2024-01-07T00:17:13;5.70;77.30
4107;DHT22;21906;50.812;7.132;2024-01-07T00:19:39;5.80;77.30
4107;DHT22;21906;50.812;7.132;2024-01-07T00:22:06;5.90;77.00
4107;DHT22;21906;50.812;7.132;2024-01-07T00:24:31;5.90;76.90
4107;DHT22;21906;50.812;7.132;2024-01-07T00:26:57;5.90;76.70
4107;DHT22;21906;50.812;7.132;2024-01-07T00:29:23;5.90;76.40
4107;DHT22;21906;50.812;7.132;2024-01-07T00:31:48;5.90;76.40
4107;DHT22;21906;50.812;7.132;2024-01-07T00:34:14;5.80;76.30
4107;DHT22;21906;50.812;7.132;2024-01-07T00:36:40;5.80;76.70
4107;DHT22;21906;50.812;7.132;2024-01-07T00:39:06;5.90;77.10
4107;DHT22;21906;50.812;7.132;2024-01-07T00:41:31;5.70;76.60
4107;DHT22;21906;50.812;7.132;2024-01-07T00:43:57;5.80;76.90
4107;DHT22;21906;50.812;7.132;2024-01-07T00:46:23;5.90;76.70
4107;DHT22;21906;50.812;7.132;2024-01-07T00:48:48;5.90;76.60
4107;DHT22;21906;50.812;7.132;2024-01-07T00:51:14;6.00;76.30
4107;DHT22;21906;50.812;7.132;2024-01-07T00:53:40;5.90;76.40
4107;DHT22;21906;50.812;7.132;2024-01-07T00:56:06;5.80;76.20
4107;DHT22;21906;50.812;7.132;2024-01-07T00:58:32;5.80;75.90
4107;DHT22;21906;50.812;7.132;2024-01-07T01:00:57;5.80;76.30
4107;DHT22;21906;50.812;7.132;2024-01-07T01:03:25;5.70;76.20
4107;DHT22;21906;50.812;7.132;2024-01-07T01:05:51;5.70;76.40
4107;DHT22;21906;50.812;7.132;2024-01-07T01:08:17;5.80;76.20
4107;DHT22;21906;50.812;7.132;2024-01-07T01:10:42;5.80;75.70
4107;DHT22;21906;50.812;7.132;2024-01-07T01:13:08;5.70;76.10
4107;DHT22;21906;50.812;7.132;2024-01-07T01:15:34;5.70;76.00
4107;DHT22;21906;50.812;7.132;2024-01-07T01:18:00;5.50;75.90
4107;DHT22;21906;50.812;7.132;2024-01-07T01:20:26;5.70;76.60
4107;DHT22;21906;50.812;7.132;2024-01-07T01:22:51;5.60;76.50
4107;DHT22;21906;50.812;7.132;2024-01-07T01:25:17;5.70;76.60
4107;DHT22;21906;50.812;7.132;2024-01-07T01:27:43;5.60;76.70
4107;DHT22;21906;50.812;7.132;2024-01-07T01:30:11;5.80;77.00
4107;DHT22;21906;50.812;7.132;2024-01-07T01:32:36;5.80;76.80
4107;DHT22;21906;50.812;7.132;2024-01-07T01:35:02;5.80;76.60
4107;DHT22;21906;50.812;7.132;2024-01-07T01:37:28;5.90;76.40
4107;DHT22;21906;50.812;7.132;2024-01-07T01:39:54;5.90;76.30
4107;DHT22;21906;50.812;7.132;2024-01-07T01:42:19;5.80;76.10
4107;DHT22;21906;50.812;7.132;2024-01-07T01:44:46;5.80;76.20
4107;DHT22;21906;50.812;7.132;2024-01-07T01:47:12;5.80;75.90
4107;DHT22;21906;50.812;7.132;2024-01-07T01:49:39;5.90;76.00
4107;DHT22;21906;50.812;7.132;2024-01-07T01:52:05;5.70;76.30
4107;DHT22;21906;50.812;7.132;2024-01-07T01:54:31;5.70;76.90
4107;DHT22;21906;50.812;7.132;2024-01-07T01:56:57;5.60;76.60
4107;DHT22;21906;50.812;7.132;2024-01-07T01:59:23;5.70;76.60
4107;DHT22;21906;50.812;7.132;2024-01-07T02:01:49;5.90;76.30
4107;DHT22;21906;50.812;7.132;2024-01-07T02:04:15;5.90;76.30
4107;DHT22;21906;50.812;7.132;2024-01-07T02:06:41;5.90;76.30
4107;DHT22;21906;50.812;7.132;2024-01-07T02:09:07;6.00;76.40
4107;DHT22;21906;50.812;7.132;2024-01-07T02:11:32;5.90;75.90
4107;DHT22;21906;50.812;7.132;2024-01-07T02:13:58;6.00;75.80
4107;DHT22;21906;50.812;7.132;2024-01-07T02:16:24;5.90;75.60
4107;DHT22;21906;50.812;7.132;2024-01-07T02:18:49;5.90;76.10
4107;DHT22;21906;50.812;7.132;2024-01-07T02:21:15;5.90;75.70
4107;DHT22;21906;50.812;7.132;2024-01-07T02:23:41;5.90;75.70
4107;DHT22;21906;50.812;7.132;2024-01-07T02:26:07;5.90;75.50
4107;DHT22;21906;50.812;7.132;2024-01-07T02:28:33;5.90;75.50
4107;DHT22;21906;50.812;7.132;2024-01-07T02:30:59;5.90;76.10
4107;DHT22;21906;50.812;7.132;2024-01-07T02:33:25;5.80;76.00
4107;DHT22;21906;50.812;7.132;2024-01-07T02:35:50;5.90;76.10
4107;DHT22;21906;50.812;7.132;2024-01-07T02:38:16;6.00;76.10
4107;DHT22;21906;50.812;7.132;2024-01-07T02:43:17;6.00;75.80
4107;DHT22;21906;50.812;7.132;2024-01-07T02:45:42;6.00;75.60
4107;DHT22;21906;50.812;7.132;2024-01-07T02:48:08;6.00;75.40
4107;DHT22;21906;50.812;7.132;2024-01-07T02:50:34;5.90;75.30
4107;DHT22;21906;50.812;7.132;2024-01-07T02:52:59;5.90;75.80
4107;DHT22;21906;50.812;7.132;2024-01-07T02:55:25;5.90;75.80
4107;DHT22;21906;50.812;7.132;2024-01-07T02:57:50;5.90;75.90
4107;DHT22;21906;50.812;7.132;2024-01-07T03:00:16;5.90;75.80
4107;DHT22;21906;50.812;7.132;2024-01-07T03:02:42;5.90;75.10
4107;DHT22;21906;50.812;7.132;2024-01-07T03:05:08;5.90;75.60
4107;DHT22;21906;50.812;7.132;2024-01-07T03:07:34;6.00;75.80
4107;DHT22;21906;50.812;7.132;2024-01-07T03:09:59;5.80;75.90
4107;DHT22;21906;50.812;7.132;2024-01-07T03:12:25;5.90;75.80
4107;DHT22;21906;50.812;7.132;2024-01-07T03:14:51;5.80;75.40
4107;DHT22;21906;50.812;7.132;2024-01-07T03:17:16;5.80;75.50
4107;DHT22;21906;50.812;7.132;2024-01-07T03:19:43;5.80;75.90
4107;DHT22;21906;50.812;7.132;2024-01-07T03:22:08;5.90;75.90
4107;DHT22;21906;50.812;7.132;2024-01-07T03:24:34;5.80;75.90
4107;DHT22;21906;50.812;7.132;2024-01-07T03:27:00;5.90;75.80
4107;DHT22;21906;50.812;7.132;2024-01-07T03:29:25;5.80;76.10
4107;DHT22;21906;50.812;7.132;2024-01-07T03:31:51;5.80;76.40
4107;DHT22;21906;50.812;7.132;2024-01-07T03:34:18;5.80;75.80
4107;DHT22;21906;50.812;7.132;2024-01-07T03:36:44;5.80;76.00
4107;DHT22;21906;50.812;7.132;2024-01-07T03:39:10;5.80;75.60
4107;DHT22;21906;50.812;7.132;2024-01-07T03:41:35;5.80;75.60
4107;DHT22;21906;50.812;7.132;2024-01-07T03:44:01;5.70;75.50
4107;DHT22;21906;50.812;7.132;2024-01-07T03:46:27;5.60;75.90
4107;DHT22;21906;50.812;7.132;2024-01-07T03:48:53;5.70;75.90
4107;DHT22;21906;50.812;7.132;2024-01-07T03:51:18;5.60;75.70
4107;DHT22;21906;50.812;7.132;2024-01-07T03:53:44;5.50;75.90
4107;DHT22;21906;50.812;7.132;2024-01-07T03:56:10;5.60;75.90
4107;DHT22;21906;50.812;7.132;2024-01-07T03:58:35;5.50;76.40
4107;DHT22;21906;50.812;7.132;2024-01-07T04:01:01;5.50;76.60
4107;DHT22;21906;50.812;7.132;2024-01-07T04:03:27;5.50;76.80
4107;DHT22;21906;50.812;7.132;2024-01-07T04:05:52;5.50;76.80
4107;DHT22;21906;50.812;7.132;2024-01-07T04:08:18;5.60;76.60
4107;DHT22;21906;50.812;7.132;2024-01-07T04:10:43;5.50;76.40
4107;DHT22;21906;50.812;7.132;2024-01-07T04:13:09;5.40;76.80
4107;DHT22;21906;50.812;7.132;2024-01-07T04:15:35;5.50;76.50
4107;DHT22;21906;50.812;7.132;2024-01-07T04:18:02;5.50;76.20
4107;DHT22;21906;50.812;7.132;2024-01-07T04:20:28;5.50;76.10
4107;DHT22;21906;50.812;7.132;2024-01-07T04:22:55;5.60;76.20
4107;DHT22;21906;50.812;7.132;2024-01-07T04:25:20;5.60;75.80
4107;DHT22;21906;50.812;7.132;2024-01-07T04:27:46;5.50;76.60
4107;DHT22;21906;50.812;7.132;2024-01-07T04:30:12;5.60;76.30
4107;DHT22;21906;50.812;7.132;2024-01-07T04:32:37;5.40;75.90
4107;DHT22;21906;50.812;7.132;2024-01-07T04:35:03;5.20;77.00
4107;DHT22;21906;50.812;7.132;2024-01-07T04:37:29;5.10;77.20
4107;DHT22;21906;50.812;7.132;2024-01-07T04:39:55;5.20;77.30
4107;DHT22;21906;50.812;7.132;2024-01-07T04:42:20;5.20;77.30
4107;DHT22;21906;50.812;7.132;2024-01-07T04:44:46;5.20;77.10
4107;DHT22;21906;50.812;7.132;2024-01-07T04:47:32;5.30;77.20
4107;DHT22;21906;50.812;7.132;2024-01-07T04:50:00;5.40;76.80
4107;DHT22;21906;50.812;7.132;2024-01-07T04:52:26;5.40;76.50
4107;DHT22;21906;50.812;7.132;2024-01-07T04:54:52;5.40;76.80
4107;DHT22;21906;50.812;7.132;2024-01-07T04:57:19;5.40;77.00
4107;DHT22;21906;50.812;7.132;2024-01-07T04:59:45;5.40;76.70
4107;DHT22;21906;50.812;7.132;2024-01-07T05:02:14;5.20;77.10
4107;DHT22;21906;50.812;7.132;2024-01-07T05:04:40;5.20;77.80
4107;DHT22;21906;50.812;7.132;2024-01-07T05:07:05;5.10;77.70
4107;DHT22;21906;50.812;7.132;2024-01-07T05:09:32;5.10;78.00
4107;DHT22;21906;50.812;7.132;2024-01-07T05:11:58;5.10;78.20
4107;DHT22;21906;50.812;7.132;2024-01-07T05:14:23;5.10;78.10
4107;DHT22;21906;50.812;7.132;2024-01-07T05:16:49;5.20;78.10
4107;DHT22;21906;50.812;7.132;2024-01-07T05:19:15;5.20;77.50
4107;DHT22;21906;50.812;7.132;2024-01-07T05:21:40;5.10;77.80
4107;DHT22;21906;50.812;7.132;2024-01-07T05:24:06;5.20;77.70
4107;DHT22;21906;50.812;7.132;2024-01-07T05:26:38;5.10;78.00
4107;DHT22;21906;50.812;7.132;2024-01-07T05:29:05;5.20;78.20
4107;DHT22;21906;50.812;7.132;2024-01-07T05:31:30;5.20;77.90
4107;DHT22;21906;50.812;7.132;2024-01-07T05:33:56;5.20;78.10
4107;DHT22;21906;50.812;7.132;2024-01-07T05:36:21;5.30;78.00
4107;DHT22;21906;50.812;7.132;2024-01-07T05:38:47;5.30;77.70
4107;DHT22;21906;50.812;7.132;2024-01-07T05:41:13;5.30;77.70
4107;DHT22;21906;50.812;7.132;2024-01-07T05:43:38;5.30;77.90
4107;DHT22;21906;50.812;7.132;2024-01-07T05:46:04;5.20;77.90
4107;DHT22;21906;50.812;7.132;2024-01-07T05:48:29;5.20;77.90
4107;DHT22;21906;50.812;7.132;2024-01-07T05:51:05;5.30;78.10
4107;DHT22;21906;50.812;7.132;2024-01-07T05:53:31;5.40;77.80
4107;DHT22;21906;50.812;7.132;2024-01-07T05:55:56;5.30;77.00
4107;DHT22;21906;50.812;7.132;2024-01-07T05:58:22;5.20;76.60
4107;DHT22;21906;50.812;7.132;2024-01-07T06:00:48;5.20;76.80
4107;DHT22;21906;50.812;7.132;2024-01-07T06:03:14;5.20;77.00
4107;DHT22;21906;50.812;7.132;2024-01-07T06:05:39;4.90;77.30
4107;DHT22;21906;50.812;7.132;2024-01-07T06:08:05;4.90;77.80
4107;DHT22;21906;50.812;7.132;2024-01-07T06:10:31;4.90;77.70
4107;DHT22;21906;50.812;7.132;2024-01-07T06:12:57;5.10;77.80
4107;DHT22;21906;50.812;7.132;2024-01-07T06:15:22;5.00;77.50
4107;DHT22;21906;50.812;7.132;2024-01-07T06:17:48;5.10;77.90
4107;DHT22;21906;50.812;7.132;2024-01-07T06:20:14;5.10;78.10
4107;DHT22;21906;50.812;7.132;2024-01-07T06:22:40;5.10;78.00
4107;DHT22;21906;50.812;7.132;2024-01-07T06:25:06;5.10;78.20
4107;DHT22;21906;50.812;7.132;2024-01-07T06:27:32;5.20;78.20
4107;DHT22;21906;50.812;7.132;2024-01-07T06:29:57;5.20;77.30
4107;DHT22;21906;50.812;7.132;2024-01-07T06:32:23;5.20;77.10
4107;DHT22;21906;50.812;7.132;2024-01-07T06:34:50;5.10;76.80
4107;DHT22;21906;50.812;7.132;2024-01-07T06:37:17;5.10;76.60
4107;DHT22;21906;50.812;7.132;2024-01-07T06:39:43;5.10;76.50
4107;DHT22;21906;50.812;7.132;2024-01-07T06:42:08;5.10;76.80
4107;DHT22;21906;50.812;7.132;2024-01-07T06:44:34;5.00;76.90
4107;DHT22;21906;50.812;7.132;2024-01-07T06:46:59;5.00;76.80
4107;DHT22;21906;50.812;7.132;2024-01-07T06:49:25;5.00;76.70
4107;DHT22;21906;50.812;7.132;2024-01-07T06:51:50;5.10;76.70
4107;DHT22;21906;50.812;7.132;2024-01-07T06:54:16;5.10;75.90
4107;DHT22;21906;50.812;7.132;2024-01-07T06:56:42;5.00;76.50
4107;DHT22;21906;50.812;7.132;2024-01-07T06:59:08;5.00;76.80
4107;DHT22;21906;50.812;7.132;2024-01-07T07:01:34;5.00;76.50
4107;DHT22;21906;50.812;7.132;2024-01-07T07:03:59;4.90;76.50
4107;DHT22;21906;50.812;7.132;2024-01-07T07:06:26;4.80;76.60
4107;DHT22;21906;50.812;7.132;2024-01-07T07:08:51;4.90;77.20
4107;DHT22;21906;50.812;7.132;2024-01-07T07:11:17;4.90;76.70
4107;DHT22;21906;50.812;7.132;2024-01-07T07:13:43;4.90;76.30
4107;DHT22;21906;50.812;7.132;2024-01-07T07:16:08;4.90;76.50
4107;DHT22;21906;50.812;7.132;2024-01-07T07:18:34;4.90;76.70
4107;DHT22;21906;50.812;7.132;2024-01-07T07:21:00;4.90;76.40
4107;DHT22;21906;50.812;7.132;2024-01-07T07:23:26;4.90;76.60
4107;DHT22;21906;50.812;7.132;2024-01-07T07:25:51;4.90;76.40
4107;DHT22;21906;50.812;7.132;2024-01-07T07:28:17;4.90;76.00
4107;DHT22;21906;50.812;7.132;2024-01-07T07:30:43;4.80;76.20
4107;DHT22;21906;50.812;7.132;2024-01-07T07:33:08;4.70;76.20
4107;DHT22;21906;50.812;7.132;2024-01-07T07:35:37;4.80;76.20
4107;DHT22;21906;50.812;7.132;2024-01-07T07:38:05;4.80;76.50
4107;DHT22;21906;50.812;7.132;2024-01-07T07:40:31;4.80;76.10
4107;DHT22;21906;50.812;7.132;2024-01-07T07:42:56;4.80;76.40
4107;DHT22;21906;50.812;7.132;2024-01-07T07:45:22;4.70;76.60
4107;DHT22;21906;50.812;7.132;2024-01-07T07:47:47;4.70;76.70
4107;DHT22;21906;50.812;7.132;2024-01-07T07:50:13;4.90;76.50
4107;DHT22;21906;50.812;7.132;2024-01-07T07:52:42;5.00;76.40
4107;DHT22;21906;50.812;7.132;2024-01-07T07:55:12;5.10;75.80
4107;DHT22;21906;50.812;7.132;2024-01-07T07:57:38;5.10;75.80
4107;DHT22;21906;50.812;7.132;2024-01-07T08:00:05;5.10;75.60
4107;DHT22;21906;50.812;7.132;2024-01-07T08:02:31;5.10;75.50
4107;DHT22;21906;50.812;7.132;2024-01-07T08:04:57;5.20;75.70
4107;DHT22;21906;50.812;7.132;2024-01-07T08:07:22;5.10;75.80
4107;DHT22;21906;50.812;7.132;2024-01-07T08:09:48;5.20;75.50
4107;DHT22;21906;50.812;7.132;2024-01-07T08:12:14;5.30;75.30
4107;DHT22;21906;50.812;7.132;2024-01-07T08:14:40;5.30;75.00
4107;DHT22;21906;50.812;7.132;2024-01-07T08:17:07;5.20;74.70
4107;DHT22;21906;50.812;7.132;2024-01-07T08:19:33;5.30;75.30
4107;DHT22;21906;50.812;7.132;2024-01-07T08:21:58;5.20;74.70
4107;DHT22;21906;50.812;7.132;2024-01-07T08:24:24;5.00;74.30
4107;DHT22;21906;50.812;7.132;2024-01-07T08:26:50;5.10;74.90
4107;DHT22;21906;50.812;7.132;2024-01-07T08:29:17;5.10;74.90
4107;DHT22;21906;50.812;7.132;2024-01-07T08:31:42;4.90;75.40
4107;DHT22;21906;50.812;7.132;2024-01-07T08:34:08;5.00;75.20
4107;DHT22;21906;50.812;7.132;2024-01-07T08:36:34;5.00;75.50
4107;DHT22;21906;50.812;7.132;2024-01-07T08:39:00;5.10;75.40
4107;DHT22;21906;50.812;7.132;2024-01-07T08:41:26;5.00;75.40
4107;DHT22;21906;50.812;7.132;2024-01-07T08:43:52;5.00;75.50
4107;DHT22;21906;50.812;7.132;2024-01-07T08:46:20;5.00;75.50
4107;DHT22;21906;50.812;7.132;2024-01-07T08:48:46;5.20;75.50
4107;DHT22;21906;50.812;7.132;2024-01-07T08:51:12;5.20;74.90
4107;DHT22;21906;50.812;7.132;2024-01-07T08:53:38;5.20;74.50
4107;DHT22;21906;50.812;7.132;2024-01-07T08:56:04;5.20;74.70
4107;DHT22;21906;50.812;7.132;2024-01-07T08:58:29;5.20;74.90
4107;DHT22;21906;50.812;7.132;2024-01-07T09:00:55;5.20;74.60
4107;DHT22;21906;50.812;7.132;2024-01-07T09:03:21;5.10;75.00
4107;DHT22;21906;50.812;7.132;2024-01-07T09:05:46;5.10;74.70
4107;DHT22;21906;50.812;7.132;2024-01-07T09:08:12;4.90;75.20
4107;DHT22;21906;50.812;7.132;2024-01-07T09:10:40;5.00;75.20
4107;DHT22;21906;50.812;7.132;2024-01-07T09:13:05;5.00;74.70
4107;DHT22;21906;50.812;7.132;2024-01-07T09:15:32;5.00;75.20
4107;DHT22;21906;50.812;7.132;2024-01-07T09:17:57;4.80;75.00
4107;DHT22;21906;50.812;7.132;2024-01-07T09:20:23;4.90;75.20
4107;DHT22;21906;50.812;7.132;2024-01-07T09:22:49;4.90;75.20
4107;DHT22;21906;50.812;7.132;2024-01-07T09:25:15;5.00;75.30
4107;DHT22;21906;50.812;7.132;2024-01-07T09:27:42;5.00;74.50
4107;DHT22;21906;50.812;7.132;2024-01-07T09:30:13;5.00;74.80
4107;DHT22;21906;50.812;7.132;2024-01-07T09:32:43;5.00;74.80
4107;DHT22;21906;50.812;7.132;2024-01-07T09:35:12;4.90;74.80
4107;DHT22;21906;50.812;7.132;2024-01-07T09:37:38;4.70;74.70
4107;DHT22;21906;50.812;7.132;2024-01-07T09:40:05;4.50;74.80
4107;DHT22;21906;50.812;7.132;2024-01-07T09:42:32;4.20;75.50
4107;DHT22;21906;50.812;7.132;2024-01-07T09:45:02;4.00;76.00
4107;DHT22;21906;50.812;7.132;2024-01-07T09:47:29;3.90;76.80
4107;DHT22;21906;50.812;7.132;2024-01-07T09:49:55;3.90;77.10
4107;DHT22;21906;50.812;7.132;2024-01-07T09:52:21;3.90;76.80
4107;DHT22;21906;50.812;7.132;2024-01-07T09:54:51;3.90;77.20
4107;DHT22;21906;50.812;7.132;2024-01-07T09:57:18;4.10;77.20
4107;DHT22;21906;50.812;7.132;2024-01-07T09:59:45;4.20;77.00
4107;DHT22;21906;50.812;7.132;2024-01-07T10:02:11;4.20;76.80
4107;DHT22;21906;50.812;7.132;2024-01-07T10:04:37;4.40;76.80
4107;DHT22;21906;50.812;7.132;2024-01-07T10:07:03;4.50;76.10
4107;DHT22;21906;50.812;7.132;2024-01-07T10:09:32;4.50;75.70
4107;DHT22;21906;50.812;7.132;2024-01-07T10:11:58;4.60;75.50
4107;DHT22;21906;50.812;7.132;2024-01-07T10:14:24;4.60;75.60
4107;DHT22;21906;50.812;7.132;2024-01-07T10:16:52;4.50;75.10
4107;DHT22;21906;50.812;7.132;2024-01-07T10:19:23;4.60;75.10
4107;DHT22;21906;50.812;7.132;2024-01-07T10:22:00;4.70;75.30
4107;DHT22;21906;50.812;7.132;2024-01-07T10:24:36;4.60;75.40
4107;DHT22;21906;50.812;7.132;2024-01-07T10:27:06;4.50;75.70
4107;DHT22;21906;50.812;7.132;2024-01-07T10:29:32;4.40;75.90
4107;DHT22;21906;50.812;7.132;2024-01-07T10:32:01;4.50;76.30
4107;DHT22;21906;50.812;7.132;2024-01-07T10:34:31;4.50;76.20
4107;DHT22;21906;50.812;7.132;2024-01-07T10:36:59;4.30;75.90
4107;DHT22;21906;50.812;7.132;2024-01-07T10:39:25;4.00;76.40
4107;DHT22;21906;50.812;7.132;2024-01-07T10:41:52;3.90;77.10
4107;DHT22;21906;50.812;7.132;2024-01-07T10:44:25;3.90;77.70
4107;DHT22;21906;50.812;7.132;2024-01-07T10:46:55;3.90;78.30
4107;DHT22;21906;50.812;7.132;2024-01-07T10:49:23;3.80;78.50
4107;DHT22;21906;50.812;7.132;2024-01-07T10:52:06;3.80;80.50
4107;DHT22;21906;50.812;7.132;2024-01-07T10:54:34;3.90;81.20
4107;DHT22;21906;50.812;7.132;2024-01-07T10:57:15;4.10;79.70
4107;DHT22;21906;50.812;7.132;2024-01-07T10:59:45;4.10;78.30
4107;DHT22;21906;50.812;7.132;2024-01-07T11:02:12;4.00;77.90
4107;DHT22;21906;50.812;7.132;2024-01-07T11:05:03;3.90;78.10
4107;DHT22;21906;50.812;7.132;2024-01-07T11:07:41;3.90;77.50
4107;DHT22;21906;50.812;7.132;2024-01-07T11:10:22;4.00;77.40
4107;DHT22;21906;50.812;7.132;2024-01-07T11:12:55;4.10;77.20
4107;DHT22;21906;50.812;7.132;2024-01-07T11:18:20;4.10;77.00
4107;DHT22;21906;50.812;7.132;2024-01-07T11:20:47;4.30;78.50
4107;DHT22;21906;50.812;7.132;2024-01-07T11:23:29;4.40;77.00
4107;DHT22;21906;50.812;7.132;2024-01-07T11:26:01;4.30;76.70
4107;DHT22;21906;50.812;7.132;2024-01-07T11:28:47;4.40;77.00
4107;DHT22;21906;50.812;7.132;2024-01-07T11:31:20;4.50;76.30
4107;DHT22;21906;50.812;7.132;2024-01-07T11:33:50;4.50;75.80
4107;DHT22;21906;50.812;7.132;2024-01-07T11:36:17;4.50;75.90
4107;DHT22;21906;50.812;7.132;2024-01-07T11:38:50;4.50;74.80
4107;DHT22;21906;50.812;7.132;2024-01-07T11:41:16;4.60;75.00
4107;DHT22;21906;50.812;7.132;2024-01-07T11:43:57;4.60;74.70
4107;DHT22;21906;50.812;7.132;2024-01-07T11:46:25;4.50;74.20
4107;DHT22;21906;50.812;7.132;2024-01-07T11:48:53;4.40;73.80
4107;DHT22;21906;50.812;7.132;2024-01-07T11:51:31;4.40;74.50
4107;DHT22;21906;50.812;7.132;2024-01-07T11:53:59;4.40;74.40
4107;DHT22;21906;50.812;7.132;2024-01-07T11:56:26;4.40;73.70
4107;DHT22;21906;50.812;7.132;2024-01-07T11:58:52;4.40;73.80
4107;DHT22;21906;50.812;7.132;2024-01-07T12:01:21;4.30;73.60
4107;DHT22;21906;50.812;7.132;2024-01-07T12:03:47;4.20;74.20
4107;DHT22;21906;50.812;7.132;2024-01-07T12:06:13;4.20;74.70
4107;DHT22;21906;50.812;7.132;2024-01-07T12:08:45;4.40;74.30
4107;DHT22;21906;50.812;7.132;2024-01-07T12:11:13;4.40;73.30
4107;DHT22;21906;50.812;7.132;2024-01-07T12:13:40;4.40;73.50
4107;DHT22;21906;50.812;7.132;2024-01-07T12:16:06;4.40;73.90
4107;DHT22;21906;50.812;7.132;2024-01-07T12:18:32;4.40;73.20
4107;DHT22;21906;50.812;7.132;2024-01-07T12:20:59;4.40;73.60
4107;DHT22;21906;50.812;7.132;2024-01-07T12:23:28;4.40;73.30
4107;DHT22;21906;50.812;7.132;2024-01-07T12:25:54;4.40;72.40
4107;DHT22;21906;50.812;7.132;2024-01-07T12:28:23;4.20;72.30
4107;DHT22;21906;50.812;7.132;2024-01-07T12:30:49;4.20;72.70
4107;DHT22;21906;50.812;7.132;2024-01-07T12:33:21;4.20;73.00
4107;DHT22;21906;50.812;7.132;2024-01-07T12:35:47;4.20;72.70
4107;DHT22;21906;50.812;7.132;2024-01-07T12:38:13;4.00;72.70
4107;DHT22;21906;50.812;7.132;2024-01-07T12:40:39;3.90;72.70
4107;DHT22;21906;50.812;7.132;2024-01-07T12:43:05;3.80;73.40
4107;DHT22;21906;50.812;7.132;2024-01-07T12:45:34;3.70;73.30
4107;DHT22;21906;50.812;7.132;2024-01-07T12:48:00;3.70;73.30
4107;DHT22;21906;50.812;7.132;2024-01-07T12:50:28;3.70;73.30
4107;DHT22;21906;50.812;7.132;2024-01-07T12:52:56;3.70;73.60
4107;DHT22;21906;50.812;7.132;2024-01-07T12:55:22;3.60;73.40
4107;DHT22;21906;50.812;7.132;2024-01-07T12:57:48;3.60;73.30
4107;DHT22;21906;50.812;7.132;2024-01-07T13:00:15;3.60;74.20
4107;DHT22;21906;50.812;7.132;2024-01-07T13:02:41;3.80;73.10
4107;DHT22;21906;50.812;7.132;2024-01-07T13:05:07;3.70;73.50
4107;DHT22;21906;50.812;7.132;2024-01-07T13:07:33;3.70;73.30
4107;DHT22;21906;50.812;7.132;2024-01-07T13:09:59;3.60;73.20
4107;DHT22;21906;50.812;7.132;2024-01-07T13:12:26;3.70;73.20
4107;DHT22;21906;50.812;7.132;2024-01-07T13:14:54;3.70;73.20
4107;DHT22;21906;50.812;7.132;2024-01-07T13:17:20;3.80;73.40
4107;DHT22;21906;50.812;7.132;2024-01-07T13:19:46;3.90;72.70
4107;DHT22;21906;50.812;7.132;2024-01-07T13:22:12;3.80;72.10
4107;DHT22;21906;50.812;7.132;2024-01-07T13:24:39;3.80;72.90
4107;DHT22;21906;50.812;7.132;2024-01-07T13:27:05;3.70;72.20
4107;DHT22;21906;50.812;7.132;2024-01-07T13:29:31;3.60;72.40
4107;DHT22;21906;50.812;7.132;2024-01-07T13:31:57;3.50;72.40
4107;DHT22;21906;50.812;7.132;2024-01-07T13:34:23;3.40;72.70
4107;DHT22;21906;50.812;7.132;2024-01-07T13:36:48;3.40;73.30
4107;DHT22;21906;50.812;7.132;2024-01-07T13:39:14;3.40;73.20
4107;DHT22;21906;50.812;7.132;2024-01-07T13:41:42;3.40;74.10
4107;DHT22;21906;50.812;7.132;2024-01-07T13:44:07;3.40;72.20
4107;DHT22;21906;50.812;7.132;2024-01-07T13:46:43;3.50;73.20
4107;DHT22;21906;50.812;7.132;2024-01-07T13:49:08;3.40;71.30
4107;DHT22;21906;50.812;7.132;2024-01-07T13:51:34;3.30;71.30
4107;DHT22;21906;50.812;7.132;2024-01-07T13:54:02;3.20;70.70
4107;DHT22;21906;50.812;7.132;2024-01-07T13:56:29;3.20;70.60
4107;DHT22;21906;50.812;7.132;2024-01-07T13:58:55;3.20;70.80
4107;DHT22;21906;50.812;7.132;2024-01-07T14:01:21;3.20;71.10
4107;DHT22;21906;50.812;7.132;2024-01-07T14:03:47;3.30;71.10
4107;DHT22;21906;50.812;7.132;2024-01-07T14:06:13;3.30;70.60
4107;DHT22;21906;50.812;7.132;2024-01-07T14:08:39;3.40;70.40
4107;DHT22;21906;50.812;7.132;2024-01-07T14:11:04;3.40;71.00
4107;DHT22;21906;50.812;7.132;2024-01-07T14:13:32;3.30;69.90
4107;DHT22;21906;50.812;7.132;2024-01-07T14:15:58;3.20;70.60
4107;DHT22;21906;50.812;7.132;2024-01-07T14:18:24;3.20;70.50
4107;DHT22;21906;50.812;7.132;2024-01-07T14:20:50;3.30;70.10
4107;DHT22;21906;50.812;7.132;2024-01-07T14:23:16;3.40;69.40
4107;DHT22;21906;50.812;7.132;2024-01-07T14:25:42;3.30;68.90
4107;DHT22;21906;50.812;7.132;2024-01-07T14:28:07;3.20;69.30
4107;DHT22;21906;50.812;7.132;2024-01-07T14:30:33;3.20;69.20
4107;DHT22;21906;50.812;7.132;2024-01-07T14:32:59;3.10;69.80
4107;DHT22;21906;50.812;7.132;2024-01-07T14:35:25;3.20;68.90
4107;DHT22;21906;50.812;7.132;2024-01-07T14:37:53;3.30;68.50
4107;DHT22;21906;50.812;7.132;2024-01-07T14:40:19;3.20;68.20
4107;DHT22;21906;50.812;7.132;2024-01-07T14:42:45;3.30;68.00
4107;DHT22;21906;50.812;7.132;2024-01-07T14:45:11;3.30;67.60
4107;DHT22;21906;50.812;7.132;2024-01-07T14:47:36;3.00;66.20
4107;DHT22;21906;50.812;7.132;2024-01-07T14:50:02;2.90;66.50
4107;DHT22;21906;50.812;7.132;2024-01-07T14:52:28;2.70;66.20
4107;DHT22;21906;50.812;7.132;2024-01-07T14:54:54;2.80;66.70
4107;DHT22;21906;50.812;7.132;2024-01-07T14:57:20;2.70;66.50
4107;DHT22;21906;50.812;7.132;2024-01-07T14:59:46;2.60;67.40
4107;DHT22;21906;50.812;7.132;2024-01-07T15:02:11;2.70;67.10
4107;DHT22;21906;50.812;7.132;2024-01-07T15:04:37;2.80;66.50
4107;DHT22;21906;50.812;7.132;2024-01-07T15:07:03;2.70;66.70
4107;DHT22;21906;50.812;7.132;2024-01-07T15:09:29;2.60;67.50
4107;DHT22;21906;50.812;7.132;2024-01-07T15:11:55;2.60;67.90
4107;DHT22;21906;50.812;7.132;2024-01-07T15:14:21;2.70;68.20
4107;DHT22;21906;50.812;7.132;2024-01-07T15:16:47;2.80;67.80
4107;DHT22;21906;50.812;7.132;2024-01-07T15:19:19;2.70;68.70
4107;DHT22;21906;50.812;7.132;2024-01-07T15:21:45;2.50;67.80
4107;DHT22;21906;50.812;7.132;2024-01-07T15:24:11;2.50;68.10
4107;DHT22;21906;50.812;7.132;2024-01-07T15:26:37;2.50;68.10
4107;DHT22;21906;50.812;7.132;2024-01-07T15:29:05;2.50;67.40
4107;DHT22;21906;50.812;7.132;2024-01-07T15:31:30;2.40;66.90
4107;DHT22;21906;50.812;7.132;2024-01-07T15:33:56;2.50;66.30
4107;DHT22;21906;50.812;7.132;2024-01-07T15:36:22;2.60;65.70
4107;DHT22;21906;50.812;7.132;2024-01-07T15:38:48;2.40;66.20
4107;DHT22;21906;50.812;7.132;2024-01-07T15:41:14;2.60;65.70
4107;DHT22;21906;50.812;7.132;2024-01-07T15:43:39;2.50;64.30
4107;DHT22;21906;50.812;7.132;2024-01-07T15:46:05;2.40;64.60
4107;DHT22;21906;50.812;7.132;2024-01-07T15:48:31;2.50;64.30
4107;DHT22;21906;50.812;7.132;2024-01-07T15:50:58;2.50;63.70
4107;DHT22;21906;50.812;7.132;2024-01-07T15:53:24;2.40;64.00
4107;DHT22;21906;50.812;7.132;2024-01-07T15:56:00;2.30;64.00
4107;DHT22;21906;50.812;7.132;2024-01-07T15:58:28;2.30;64.40
4107;DHT22;21906;50.812;7.132;2024-01-07T16:01:00;2.50;63.40
4107;DHT22;21906;50.812;7.132;2024-01-07T16:03:31;2.50;62.70